createdAt,value
2018-08-24T06:44:41.349Z,996
2018-08-24T06:45:01.609Z,1016
2018-08-24T06:45:21.768Z,1032
2018-08-24T06:45:41.939Z,1036
2018-08-24T06:46:02.821Z,1032
2018-08-24T06:46:22.975Z,1044
2018-08-24T06:46:43.137Z,1036
2018-08-24T06:47:03.326Z,1036
2018-08-24T06:47:23.838Z,1048
2018-08-24T06:47:43.873Z,1040
2018-08-24T06:48:04.051Z,1020
2018-08-24T06:48:24.342Z,1000
2018-08-24T06:48:44.544Z,960
2018-08-24T06:49:04.679Z,936
2018-08-24T06:49:25.693Z,924
2018-08-24T06:49:45.868Z,920
2018-08-24T06:50:06.145Z,924
2018-08-24T06:50:26.716Z,932
2018-08-24T06:50:50.296Z,952
2018-08-24T06:51:10.454Z,984
2018-08-24T06:51:30.667Z,1004
2018-08-24T06:51:50.847Z,1012
2018-08-24T06:52:11.019Z,1016
2018-08-24T06:52:31.224Z,1008
2018-08-24T06:52:51.402Z,1000
2018-08-24T06:53:11.900Z,988
2018-08-24T06:53:32.276Z,988
2018-08-24T06:53:52.553Z,1012
2018-08-24T06:54:12.640Z,1020
2018-08-24T06:54:32.847Z,1020
2018-08-24T06:54:53.079Z,1020
2018-08-24T06:55:13.262Z,1028
2018-08-24T06:55:33.456Z,1036
2018-08-24T06:55:53.647Z,1048
2018-08-24T06:56:13.852Z,1056
2018-08-24T06:56:34.032Z,1072
2018-08-24T06:56:54.223Z,1048
2018-08-24T06:57:14.480Z,1036
2018-08-24T06:57:34.699Z,1040
2018-08-24T06:57:54.875Z,1064
2018-08-24T06:58:15.061Z,1056
2018-08-24T06:58:35.263Z,1068
2018-08-24T06:58:55.452Z,1052
2018-08-24T06:59:15.697Z,1032
2018-08-24T06:59:35.946Z,1008
2018-08-24T06:59:56.162Z,992
2018-08-24T07:00:16.384Z,984
2018-08-24T07:00:37.181Z,976
2018-08-24T07:00:57.426Z,968
2018-08-24T07:01:17.629Z,960
2018-08-24T07:01:37.750Z,956
2018-08-24T07:01:57.999Z,964
2018-08-24T07:02:18.242Z,976
2018-08-24T07:02:38.414Z,996
2018-08-24T07:02:58.572Z,1024
2018-08-24T07:03:18.801Z,1032
2018-08-24T07:03:38.972Z,1048
2018-08-24T07:03:59.180Z,1056
2018-08-24T07:04:19.367Z,1064
2018-08-24T07:04:39.738Z,1064
2018-08-24T07:04:59.940Z,1068
2018-08-24T07:05:20.171Z,1080
2018-08-24T07:05:40.544Z,1092
2018-08-24T07:06:00.598Z,1116
2018-08-24T07:06:20.825Z,1140
2018-08-24T07:06:40.985Z,1160
2018-08-24T07:07:01.122Z,1168
2018-08-24T07:07:21.281Z,1168
2018-08-24T07:07:41.427Z,1152
2018-08-24T07:08:01.614Z,1156
2018-08-24T07:08:21.808Z,1168
2018-08-24T07:08:41.949Z,1180
2018-08-24T07:09:02.218Z,1188
2018-08-24T07:09:22.457Z,1196
2018-08-24T07:09:42.610Z,1200
2018-08-24T07:10:02.875Z,1216
2018-08-24T07:10:23.016Z,1228
2018-08-24T07:10:43.203Z,1244
2018-08-24T07:11:03.474Z,1264
2018-08-24T07:11:23.772Z,1280
2018-08-24T07:11:43.933Z,1304
2018-08-24T07:12:04.083Z,1324
2018-08-24T07:12:24.248Z,1344
2018-08-24T07:12:44.435Z,1360
2018-08-24T07:13:04.756Z,1384
2018-08-24T07:13:24.890Z,1400
2018-08-24T07:13:45.130Z,1424
2018-08-24T07:14:05.318Z,1444
2018-08-24T07:14:25.517Z,1464
2018-08-24T07:14:45.785Z,1476
2018-08-24T07:15:06.022Z,1484
2018-08-24T07:15:26.246Z,1500
2018-08-24T07:15:46.493Z,1512
2018-08-24T07:16:06.784Z,1520
2018-08-24T07:16:27.041Z,1524
2018-08-24T07:16:47.225Z,1528
2018-08-24T07:17:07.448Z,1532
2018-08-24T07:17:27.599Z,1524
2018-08-24T07:17:47.750Z,1512
2018-08-24T07:18:08.001Z,1532
2018-08-24T07:18:28.236Z,1528
2018-08-24T07:18:48.483Z,1516
2018-08-24T07:19:08.673Z,1468
2018-08-24T07:19:28.979Z,1452
2018-08-24T07:19:49.222Z,1436
2018-08-24T07:20:09.441Z,1436
2018-08-24T07:20:29.659Z,1444
2018-08-24T07:20:49.880Z,1468
2018-08-24T07:21:10.123Z,1476
2018-08-24T07:21:30.404Z,1504
2018-08-24T07:21:50.639Z,1544
2018-08-24T07:22:10.880Z,1544
2018-08-24T07:22:31.149Z,1636
2018-08-24T07:22:51.393Z,1676
2018-08-24T07:23:11.606Z,1692
2018-08-24T07:23:31.937Z,1700
2018-08-24T07:23:52.170Z,1716
2018-08-24T07:24:12.444Z,1732
2018-08-24T07:24:32.651Z,1748
2018-08-24T07:24:52.819Z,1780
2018-08-24T07:25:13.233Z,1808
2018-08-24T07:25:33.457Z,1856
2018-08-24T07:25:53.705Z,1880
2018-08-24T07:26:14.012Z,1892
2018-08-24T07:26:34.327Z,1940
2018-08-24T07:26:54.597Z,1960
2018-08-24T07:27:14.865Z,1988
2018-08-24T07:27:35.146Z,1936
2018-08-24T07:27:55.381Z,1948
2018-08-24T07:28:15.565Z,2016
2018-08-24T07:28:35.830Z,2000
2018-08-24T07:28:56.043Z,2080
2018-08-24T07:29:17.320Z,2092
2018-08-24T07:29:37.572Z,2184
2018-08-24T07:29:58.675Z,2216
2018-08-24T07:30:18.916Z,2248
2018-08-24T07:30:39.089Z,2280
2018-08-24T07:30:59.553Z,2288
2018-08-24T07:31:19.778Z,2348
2018-08-24T07:31:40.107Z,2380
2018-08-24T07:32:00.301Z,2384
2018-08-24T07:32:20.609Z,2372
2018-08-24T07:32:40.878Z,2408
2018-08-24T07:33:01.074Z,2444
2018-08-24T07:33:21.348Z,2468
2018-08-24T07:33:41.622Z,2488
2018-08-24T07:34:01.874Z,2492
2018-08-24T07:34:22.016Z,2500
2018-08-24T07:34:42.227Z,2492
2018-08-24T07:35:02.388Z,2448
2018-08-24T07:35:22.704Z,2372
2018-08-24T07:35:42.858Z,2352
2018-08-24T07:36:03.055Z,2348
2018-08-24T07:36:23.342Z,2352
2018-08-24T07:36:43.573Z,2352
2018-08-24T07:37:03.857Z,2336
2018-08-24T07:37:24.254Z,2316
2018-08-24T07:37:44.475Z,2300
2018-08-24T07:38:05.345Z,2288
2018-08-24T07:38:25.703Z,2272
2018-08-24T07:38:45.972Z,2260
2018-08-24T07:39:06.218Z,2276
2018-08-24T07:39:26.434Z,2268
2018-08-24T07:39:46.641Z,2276
2018-08-24T07:40:06.912Z,2280
2018-08-24T07:40:27.176Z,2272
2018-08-24T07:40:47.408Z,2264
2018-08-24T07:41:07.587Z,2252
2018-08-24T07:41:27.881Z,2244
2018-08-24T07:41:48.126Z,2240
2018-08-24T07:42:08.280Z,2228
2018-08-24T07:42:28.520Z,2216
2018-08-24T07:42:48.731Z,2200
2018-08-24T07:43:09.060Z,2184
2018-08-24T07:43:29.764Z,2164
2018-08-24T07:43:50.040Z,2144
2018-08-24T07:44:10.254Z,2112
2018-08-24T07:44:30.415Z,2084
2018-08-24T07:44:50.685Z,2060
2018-08-24T07:45:10.935Z,2040
2018-08-24T07:45:31.187Z,2020
2018-08-24T07:45:51.482Z,2004
2018-08-24T07:46:11.774Z,1988
2018-08-24T07:46:32.072Z,1968
2018-08-24T07:46:52.270Z,1956
2018-08-24T07:47:12.473Z,1940
2018-08-24T07:47:32.779Z,1936
2018-08-24T07:47:53.018Z,1940
2018-08-24T07:48:13.258Z,1940
2018-08-24T07:48:33.467Z,1936
2018-08-24T07:48:53.777Z,1936
2018-08-24T07:49:14.037Z,1920
2018-08-24T07:49:34.344Z,1896
2018-08-24T07:49:54.588Z,1884
2018-08-24T07:50:14.813Z,1816
2018-08-24T07:50:35.079Z,1760
2018-08-24T07:50:55.404Z,1784
2018-08-24T07:51:15.624Z,1844
2018-08-24T07:51:35.944Z,1828
2018-08-24T07:51:56.178Z,1780
2018-08-24T07:52:16.415Z,1740
2018-08-24T07:52:36.625Z,1712
2018-08-24T07:52:56.882Z,1668
2018-08-24T07:53:17.193Z,1640
2018-08-24T07:53:37.428Z,1616
2018-08-24T07:53:57.677Z,1624
2018-08-24T07:54:17.965Z,1620
2018-08-24T07:54:38.296Z,1592
2018-08-24T07:54:58.512Z,1564
2018-08-24T07:55:18.734Z,1540
2018-08-24T07:55:38.929Z,1520
2018-08-24T07:55:59.148Z,1496
2018-08-24T08:05:44.357Z,1592
2018-08-24T08:06:04.624Z,1580
2018-08-24T08:06:24.890Z,1576
2018-08-24T08:06:45.120Z,1560
2018-08-24T08:07:05.452Z,1552
2018-08-24T08:07:25.778Z,1560
2018-08-24T08:07:46.075Z,1540
2018-08-24T08:08:06.323Z,1528
2018-08-24T08:08:26.709Z,1520
2018-08-24T08:08:46.949Z,1516
2018-08-24T08:09:07.205Z,1520
2018-08-24T08:09:27.502Z,1528
2018-08-24T08:09:47.819Z,1540
2018-08-24T08:10:08.289Z,1548
2018-08-24T08:10:28.547Z,1552
2018-08-24T08:10:48.777Z,1548
2018-08-24T08:11:09.130Z,1544
2018-08-24T08:11:29.382Z,1544
2018-08-24T08:11:49.635Z,1532
2018-08-24T08:12:09.990Z,1516
2018-08-24T08:12:30.257Z,1512
2018-08-24T08:12:50.511Z,1512
2018-08-24T08:13:10.753Z,1524
2018-08-24T08:13:31.051Z,1536
2018-08-24T08:13:51.331Z,1544
2018-08-24T08:14:11.603Z,1552
2018-08-24T08:14:31.865Z,1572
2018-08-24T08:14:52.320Z,1588
2018-08-24T08:15:12.575Z,1608
2018-08-24T08:15:33.031Z,1620
2018-08-24T08:15:53.318Z,1632
2018-08-24T08:16:13.630Z,1648
2018-08-24T08:16:33.927Z,1680
2018-08-24T08:16:54.105Z,1676
2018-08-24T08:17:14.577Z,1656
2018-08-24T08:17:34.810Z,1640
2018-08-24T08:17:55.327Z,1640
2018-08-24T08:18:15.847Z,1644
2018-08-24T08:18:36.128Z,1640
2018-08-24T08:18:56.330Z,1648
2018-08-24T08:19:16.653Z,1656
2018-08-24T08:19:36.928Z,1668
2018-08-24T08:19:57.235Z,1700
2018-08-24T08:20:17.527Z,1708
2018-08-24T08:20:38.604Z,1732
2018-08-24T08:20:58.871Z,1756
2018-08-24T08:21:19.121Z,1760
2018-08-24T08:21:39.351Z,1808
2018-08-24T08:21:59.839Z,1796
2018-08-24T08:22:21.028Z,1800
2018-08-24T08:22:41.294Z,1804
2018-08-24T08:23:01.672Z,1816
2018-08-24T08:23:41.543Z,1876
2018-08-24T08:24:01.776Z,1940
2018-08-24T08:24:22.107Z,1976
2018-08-24T08:24:42.451Z,1976
2018-08-24T08:25:02.834Z,1980
2018-08-24T08:25:23.163Z,2064
2018-08-24T08:25:43.592Z,2064
2018-08-24T08:26:03.888Z,1992
2018-08-24T08:26:24.210Z,2024
2018-08-24T08:26:44.453Z,2052
2018-08-24T08:27:04.711Z,2092
2018-08-24T08:27:24.989Z,2164
2018-08-24T08:27:45.340Z,2240
2018-08-24T08:28:05.679Z,2380
2018-08-24T08:28:25.929Z,2456
2018-08-24T08:28:46.231Z,2448
2018-08-24T08:29:06.554Z,2360
2018-08-24T08:29:26.794Z,2204
2018-08-24T08:29:47.017Z,2320
2018-08-24T08:30:07.269Z,2300
2018-08-24T08:30:27.660Z,2360
2018-08-24T08:30:48.144Z,2408
2018-08-24T08:31:08.414Z,2360
2018-08-24T08:31:28.804Z,2228
2018-08-24T08:31:49.067Z,2144
2018-08-24T08:32:09.276Z,2128
2018-08-24T08:32:29.512Z,2012
2018-08-24T08:32:49.748Z,1872
2018-08-24T08:33:09.981Z,1780
2018-08-24T08:33:30.304Z,1768
2018-08-24T08:33:50.642Z,1740
2018-08-24T08:34:10.841Z,1692
2018-08-24T08:34:31.195Z,1680
2018-08-24T08:34:51.449Z,1660
2018-08-24T08:35:12.610Z,1608
2018-08-24T08:35:32.900Z,1540
2018-08-24T08:35:53.140Z,1492
2018-08-24T08:36:14.029Z,1464
2018-08-24T08:36:34.279Z,1440
2018-08-24T08:36:54.670Z,1432
2018-08-24T08:37:14.897Z,1460
2018-08-24T08:37:35.187Z,1480
2018-08-24T08:37:55.453Z,1620
2018-08-24T08:38:15.751Z,1528
2018-08-24T08:38:35.961Z,1556
2018-08-24T08:38:56.240Z,1596
2018-08-24T08:39:17.101Z,1680
2018-08-24T08:39:37.319Z,1744
2018-08-24T08:39:57.559Z,1764
2018-08-24T08:40:17.767Z,1816
2018-08-24T08:40:37.995Z,1828
2018-08-24T08:40:58.188Z,1792
2018-08-24T08:41:18.419Z,1756
2018-08-24T08:41:38.683Z,1720
2018-08-24T08:41:58.932Z,1700
2018-08-24T08:42:19.960Z,1724
2018-08-24T08:42:40.191Z,1900
2018-08-24T08:43:00.501Z,1952
2018-08-24T08:43:20.795Z,2060
2018-08-24T08:43:41.028Z,2332
2018-08-24T08:44:01.330Z,2464
2018-08-24T08:44:21.570Z,2636
2018-08-24T08:44:41.775Z,2600
2018-08-24T08:45:01.979Z,2488
2018-08-24T08:45:22.231Z,2352
2018-08-24T08:45:42.466Z,2200
2018-08-24T08:46:02.650Z,2176
2018-08-24T08:46:22.959Z,2204
2018-08-24T08:46:43.301Z,2260
2018-08-24T08:47:03.510Z,2336
2018-08-24T08:47:23.796Z,2468
2018-08-24T08:47:44.036Z,2504
2018-08-24T08:48:04.216Z,2412
2018-08-24T08:48:24.524Z,2444
2018-08-24T08:48:44.731Z,2384
2018-08-24T08:49:04.984Z,2320
2018-08-24T08:49:25.184Z,2248
2018-08-24T08:49:45.374Z,2252
2018-08-24T08:50:05.671Z,2168
2018-08-24T08:50:25.920Z,2332
2018-08-24T08:50:46.104Z,2436
2018-08-24T08:51:06.338Z,2564
2018-08-24T08:51:26.584Z,2668
2018-08-24T08:51:46.890Z,2552
2018-08-24T08:52:06.986Z,2372
2018-08-24T08:52:27.194Z,2288
2018-08-24T08:52:47.432Z,2548
2018-08-24T08:53:07.668Z,2408
2018-08-24T08:53:28.031Z,2564
2018-08-24T08:53:48.292Z,2344
2018-08-24T08:54:08.463Z,2232
2018-08-24T08:54:28.725Z,2268
2018-08-24T08:54:48.921Z,2320
2018-08-24T08:55:09.133Z,2372
2018-08-24T08:55:29.333Z,2372
2018-08-24T08:55:49.620Z,2344
2018-08-24T08:56:09.852Z,2272
2018-08-24T08:56:30.349Z,2172
2018-08-24T08:56:50.641Z,2104
2018-08-24T08:57:10.863Z,2060
2018-08-24T08:57:31.069Z,1940
2018-08-24T08:57:51.321Z,1848
2018-08-24T08:58:11.609Z,1784
2018-08-24T08:58:31.803Z,1744
2018-08-24T08:58:52.023Z,1756
2018-08-24T08:59:12.201Z,1832
2018-08-24T08:59:32.402Z,1912
2018-08-24T08:59:52.570Z,1992
2018-08-24T09:00:12.807Z,2068
2018-08-24T09:00:33.081Z,2172
2018-08-24T09:00:53.308Z,2220
2018-08-24T09:01:13.534Z,2216
2018-08-24T09:01:33.765Z,2180
2018-08-24T09:01:54.001Z,2136
2018-08-24T09:02:14.247Z,2092
2018-08-24T09:02:34.446Z,2076
2018-08-24T09:02:54.713Z,2052
2018-08-24T09:03:14.974Z,2056
2018-08-24T09:03:35.206Z,2076
2018-08-24T09:03:55.388Z,2112
2018-08-24T09:04:15.543Z,2172
2018-08-24T09:04:35.773Z,2188
2018-08-24T09:04:56.013Z,2256
2018-08-24T09:05:16.166Z,2324
2018-08-24T09:05:36.495Z,2420
2018-08-24T09:05:56.726Z,2540
2018-08-24T09:06:17.155Z,2640
2018-08-24T09:06:37.432Z,2628
2018-08-24T09:06:57.679Z,2544
2018-08-24T09:07:18.489Z,2568
2018-08-24T09:07:38.715Z,2636
2018-08-24T09:07:58.942Z,2680
2018-08-24T09:08:19.176Z,2672
2018-08-24T09:08:39.410Z,2620
2018-08-24T09:08:59.640Z,2608
2018-08-24T09:09:19.891Z,2756
2018-08-24T09:09:40.155Z,2708
2018-08-24T09:10:00.409Z,2784
2018-08-24T09:10:20.594Z,2708
2018-08-24T09:10:40.861Z,2724
2018-08-24T09:11:01.133Z,2680
2018-08-24T09:11:21.294Z,2672
2018-08-24T09:11:41.501Z,2632
2018-08-24T09:12:01.760Z,2532
2018-08-24T09:12:22.017Z,2472
2018-08-24T09:12:42.209Z,2408
2018-08-24T09:13:02.590Z,2360
2018-08-24T09:13:22.646Z,2328
2018-08-24T09:13:42.883Z,2296
2018-08-24T09:14:03.102Z,2252
2018-08-24T09:14:23.312Z,2204
2018-08-24T09:14:43.513Z,2156
2018-08-24T09:15:03.678Z,2160
2018-08-24T09:15:23.866Z,2220
2018-08-24T09:15:44.256Z,2324
2018-08-24T09:16:04.442Z,2316
2018-08-24T09:16:24.687Z,2332
2018-08-24T09:16:44.884Z,2292
2018-08-24T09:17:05.120Z,2264
2018-08-24T09:17:25.281Z,2228
2018-08-24T09:17:45.527Z,2200
2018-08-24T09:18:05.744Z,2192
2018-08-24T09:18:26.026Z,2212
2018-08-24T09:18:46.150Z,2232
2018-08-24T09:19:06.345Z,2272
2018-08-24T09:19:26.649Z,2332
2018-08-24T09:19:46.839Z,2444
2018-08-24T09:20:07.095Z,2532
2018-08-24T09:20:27.322Z,2540
2018-08-24T09:20:47.564Z,2568
2018-08-24T09:21:07.856Z,2612
2018-08-24T09:21:28.166Z,2608
2018-08-24T09:21:48.374Z,2564
2018-08-24T09:22:08.568Z,2544
2018-08-24T09:22:28.817Z,2540
2018-08-24T09:22:49.084Z,2564
2018-08-24T09:23:09.312Z,2548
2018-08-24T09:23:29.640Z,2548
2018-08-24T09:23:50.014Z,2536
2018-08-24T09:24:10.274Z,2532
2018-08-24T09:24:30.488Z,2524
2018-08-24T09:24:50.717Z,2536
2018-08-24T09:25:11.009Z,2552
2018-08-24T09:25:31.992Z,2556
2018-08-24T09:25:52.376Z,2512
2018-08-24T09:26:14.161Z,2452
2018-08-24T09:26:34.419Z,2412
2018-08-24T09:26:54.665Z,2436
2018-08-24T09:27:14.939Z,2424
2018-08-24T09:27:35.140Z,2472
2018-08-24T09:27:55.338Z,2404
2018-08-24T09:28:15.703Z,2520
2018-08-24T09:28:36.027Z,2468
2018-08-24T09:28:56.336Z,2464
2018-08-24T09:29:16.553Z,2476
2018-08-24T09:29:36.801Z,2472
2018-08-24T09:29:57.089Z,2468
2018-08-24T09:30:17.321Z,2480
2018-08-24T09:30:37.571Z,2536
2018-08-24T09:30:57.772Z,2540
2018-08-24T09:31:17.981Z,2564
2018-08-24T09:31:38.215Z,2584
2018-08-24T09:31:58.443Z,2612
2018-08-24T09:32:18.724Z,2652
2018-08-24T09:32:39.086Z,2640
2018-08-24T09:32:59.303Z,2656
2018-08-24T09:33:19.513Z,2668
2018-08-24T09:33:39.654Z,2624
2018-08-24T09:33:59.900Z,2608
2018-08-24T09:34:20.080Z,2600
2018-08-24T09:34:40.279Z,2568
2018-08-24T09:35:00.493Z,2592
2018-08-24T09:35:20.711Z,2588
2018-08-24T09:35:40.907Z,2588
2018-08-24T09:36:01.130Z,2572
2018-08-24T09:36:21.327Z,2588
2018-08-24T09:36:41.520Z,2560
2018-08-24T09:37:01.793Z,2544
2018-08-24T09:37:22.206Z,2528
2018-08-24T09:37:42.352Z,2480
2018-08-24T09:38:02.727Z,2492
2018-08-24T09:38:22.830Z,2464
2018-08-24T09:38:43.020Z,2480
2018-08-24T09:39:03.197Z,2472
2018-08-24T09:39:23.370Z,2464
2018-08-24T09:39:43.593Z,2540
2018-08-24T09:40:03.834Z,2556
2018-08-24T09:40:24.045Z,2584
2018-08-24T09:40:44.278Z,2572
2018-08-24T09:41:04.467Z,2600
2018-08-24T09:41:24.735Z,2636
2018-08-24T09:41:44.927Z,2672
2018-08-24T09:42:05.165Z,2472
2018-08-24T09:42:25.406Z,2532
2018-08-24T09:42:45.626Z,2512
2018-08-24T09:43:05.959Z,2568
2018-08-24T09:43:26.081Z,2584
2018-08-24T09:43:46.282Z,2604
2018-08-24T09:44:06.485Z,2704
2018-08-24T09:44:26.673Z,2796
2018-08-24T09:44:46.936Z,2808
2018-08-24T09:45:07.175Z,2720
2018-08-24T09:45:27.498Z,2612
2018-08-24T09:45:47.808Z,2588
2018-08-24T09:46:07.950Z,2516
2018-08-24T09:46:28.288Z,2540
2018-08-24T09:46:48.447Z,2516
2018-08-24T09:47:08.673Z,2492
2018-08-24T09:47:28.829Z,2468
2018-08-24T09:47:49.171Z,2420
2018-08-24T09:48:09.477Z,2352
2018-08-24T09:48:29.751Z,2332
2018-08-24T09:48:50.023Z,2344
2018-08-24T09:49:10.802Z,2352
2018-08-24T09:49:31.015Z,2316
2018-08-24T09:49:51.229Z,2440
2018-08-24T09:50:11.402Z,2452
2018-08-24T09:50:31.764Z,2428
2018-08-24T09:50:51.954Z,2476
2018-08-24T09:51:12.190Z,2324
2018-08-24T09:51:32.467Z,2392
2018-08-24T09:51:52.758Z,2472
2018-08-24T09:52:13.091Z,2260
2018-08-24T09:52:33.325Z,2228
2018-08-24T09:52:53.539Z,2264
2018-08-24T09:53:13.786Z,2252
2018-08-24T09:53:34.101Z,2232
2018-08-24T09:53:54.623Z,2220
2018-08-24T09:54:15.042Z,2220
2018-08-24T09:54:35.235Z,2248
2018-08-24T09:54:55.502Z,2260
2018-08-24T09:55:15.678Z,2248
2018-08-24T09:55:35.836Z,2360
2018-08-24T09:55:56.096Z,2272
2018-08-24T09:56:16.354Z,2404
2018-08-24T09:56:36.587Z,2252
2018-08-24T09:56:56.923Z,2188
2018-08-24T09:57:17.120Z,2172
2018-08-24T09:57:37.400Z,2164
2018-08-24T09:57:57.599Z,2160
2018-08-24T09:58:17.802Z,2188
2018-08-24T09:58:38.025Z,2272
2018-08-24T09:58:58.261Z,2252
2018-08-24T09:59:18.495Z,2268
2018-08-24T09:59:38.659Z,2300
2018-08-24T09:59:58.850Z,2328
2018-08-24T10:00:19.073Z,2348
2018-08-24T10:00:39.345Z,2380
2018-08-24T10:00:59.620Z,2292
2018-08-24T10:01:19.866Z,2272
2018-08-24T10:01:40.168Z,2456
2018-08-24T10:02:00.317Z,2508
2018-08-24T10:02:20.557Z,2492
2018-08-24T10:02:40.787Z,2372
2018-08-24T10:03:01.111Z,2360
2018-08-24T10:03:21.352Z,2400
2018-08-24T10:03:41.521Z,2616
2018-08-24T10:04:01.771Z,2648
2018-08-24T10:04:22.057Z,2536
2018-08-24T10:04:42.319Z,2628
2018-08-24T10:05:02.523Z,2648
2018-08-24T10:05:22.798Z,2608
2018-08-24T10:05:43.103Z,2632
2018-08-24T10:06:03.296Z,2612
2018-08-24T10:06:23.715Z,2608
2018-08-24T10:06:44.092Z,2624
2018-08-24T10:07:04.211Z,2628
2018-08-24T10:07:24.395Z,2612
2018-08-24T10:07:44.645Z,2592
2018-08-24T10:08:04.867Z,2584
2018-08-24T10:08:25.072Z,2584
2018-08-24T10:08:45.331Z,2548
2018-08-24T10:09:06.090Z,2420
2018-08-24T10:09:26.414Z,2416
2018-08-24T10:09:46.676Z,2412
2018-08-24T10:10:06.860Z,2432
2018-08-24T10:10:29.710Z,2456
2018-08-24T10:10:49.985Z,2476
2018-08-24T10:11:10.160Z,2496
2018-08-24T10:11:30.386Z,2532
2018-08-24T10:11:50.640Z,2572
2018-08-24T10:12:10.848Z,2596
2018-08-24T10:12:31.737Z,2664
2018-08-24T10:12:52.518Z,2772
2018-08-24T10:13:12.804Z,2660
2018-08-24T10:13:33.025Z,2764
2018-08-24T10:13:53.197Z,2792
2018-08-24T10:14:13.389Z,2820
2018-08-24T10:14:33.650Z,2836
2018-08-24T10:14:53.903Z,2784
2018-08-24T10:15:14.122Z,2648
2018-08-24T10:15:38.053Z,2616
2018-08-24T10:15:58.341Z,2616
2018-08-24T10:16:19.335Z,2644
2018-08-24T10:16:39.616Z,2704
2018-08-24T10:16:59.823Z,2632
2018-08-24T10:17:20.103Z,2612
2018-08-24T10:17:40.288Z,2604
2018-08-24T10:18:00.447Z,2596
2018-08-24T10:18:20.736Z,2588
2018-08-24T10:18:40.946Z,2596
2018-08-24T10:19:02.645Z,2640
2018-08-24T10:19:22.834Z,2628
2018-08-24T10:19:43.052Z,2652
2018-08-24T10:20:03.260Z,2644
2018-08-24T10:20:23.520Z,2644
2018-08-24T10:20:43.753Z,2632
2018-08-24T10:21:03.981Z,2624
2018-08-24T10:21:25.032Z,2624
2018-08-24T10:21:45.302Z,2632
2018-08-24T10:22:05.545Z,2640
2018-08-24T10:22:26.445Z,2648
2018-08-24T10:22:46.627Z,2664
2018-08-24T10:23:06.979Z,2688
2018-08-24T10:23:27.152Z,2840
2018-08-24T10:23:47.377Z,2852
2018-08-24T10:24:07.585Z,2852
2018-08-24T10:24:28.116Z,2868
2018-08-24T10:24:48.333Z,2892
2018-08-24T10:25:08.570Z,2884
2018-08-24T10:25:28.809Z,2884
2018-08-24T10:25:49.007Z,2876
2018-08-24T10:26:10.083Z,2920
2018-08-24T10:26:30.310Z,2928
2018-08-24T10:26:50.664Z,2948
2018-08-24T10:27:10.928Z,2928
2018-08-24T10:27:31.194Z,2960
2018-08-24T10:27:51.398Z,2952
2018-08-24T10:28:11.618Z,2972
2018-08-24T10:28:31.825Z,3020
2018-08-24T10:28:52.025Z,3056
2018-08-24T10:29:12.272Z,3096
2018-08-24T10:29:33.254Z,3124
2018-08-24T10:29:53.417Z,3104
2018-08-24T10:30:13.715Z,3112
2018-08-24T10:30:34.011Z,3124
2018-08-24T10:30:54.222Z,3116
2018-08-24T10:31:14.455Z,3092
2018-08-24T10:31:35.611Z,3072
2018-08-24T10:31:55.906Z,3060
2018-08-24T10:32:16.087Z,3064
2018-08-24T10:32:36.253Z,3048
2018-08-24T10:32:56.454Z,3040
2018-08-24T10:33:16.665Z,3032
2018-08-24T10:33:36.859Z,3024
2018-08-24T10:33:57.119Z,3012
2018-08-24T10:34:17.896Z,2972
2018-08-24T10:34:38.079Z,2932
2018-08-24T10:34:58.354Z,2916
2018-08-24T10:35:18.680Z,2920
2018-08-24T10:35:38.963Z,2932
2018-08-24T10:35:59.234Z,2904
2018-08-24T10:36:21.005Z,2852
2018-08-24T10:36:41.185Z,2828
2018-08-24T10:37:01.446Z,2792
2018-08-24T10:37:21.645Z,2800
2018-08-24T10:37:41.888Z,2716
2018-08-24T10:38:03.694Z,2724
2018-08-24T10:38:24.576Z,2776
2018-08-24T10:38:44.812Z,2804
2018-08-24T10:39:05.229Z,2816
2018-08-24T10:39:26.762Z,2796
2018-08-24T10:39:47.005Z,2744
2018-08-24T10:40:07.177Z,2736
2018-08-24T10:40:27.363Z,2664
2018-08-24T10:40:47.661Z,2544
2018-08-24T10:41:07.804Z,2504
2018-08-24T10:41:28.132Z,2424
2018-08-24T10:41:48.409Z,2376
2018-08-24T10:42:08.623Z,2304
2018-08-24T10:42:28.817Z,2248
2018-08-24T10:42:49.047Z,2212
2018-08-24T10:43:09.308Z,2200
2018-08-24T10:43:30.185Z,2188
2018-08-24T10:43:50.403Z,2140
2018-08-24T10:44:10.619Z,2080
2018-08-24T10:44:30.859Z,2052
2018-08-24T10:44:51.050Z,2044
2018-08-24T10:45:11.307Z,2048
2018-08-24T10:45:32.443Z,2000
2018-08-24T10:45:52.688Z,1944
2018-08-24T10:46:12.951Z,1920
2018-08-24T10:46:33.168Z,1884
2018-08-24T10:46:53.353Z,1852
2018-08-24T10:47:13.598Z,1844
2018-08-24T10:47:33.861Z,1896
2018-08-24T10:47:54.186Z,1952
2018-08-24T10:48:14.496Z,1980
2018-08-24T10:48:34.729Z,1992
2018-08-24T10:48:54.969Z,2004
2018-08-24T10:49:15.210Z,2008
2018-08-24T10:49:35.585Z,2040
2018-08-24T10:49:55.852Z,2116
2018-08-24T10:50:17.231Z,2220
2018-08-24T10:50:37.424Z,2308
2018-08-24T10:50:57.704Z,2392
2018-08-24T10:51:18.011Z,2484
2018-08-24T10:51:38.228Z,2592
2018-08-24T10:51:58.603Z,2648
2018-08-24T10:52:18.807Z,2672
2018-08-24T10:52:39.100Z,2708
2018-08-24T10:52:59.291Z,2676
2018-08-24T10:53:19.534Z,2668
2018-08-24T10:53:39.727Z,2676
2018-08-24T10:53:59.945Z,2692
2018-08-24T10:54:20.730Z,2636
2018-08-24T10:54:42.352Z,2572
2018-08-24T10:55:02.754Z,2544
2018-08-24T10:55:23.754Z,2512
2018-08-24T10:55:44.295Z,2504
2018-08-24T10:56:04.810Z,2520
2018-08-24T10:56:25.022Z,2528
2018-08-24T10:56:45.345Z,2568
2018-08-24T10:57:05.796Z,2624
2018-08-24T10:57:25.969Z,2660
2018-08-24T10:57:46.204Z,2688
2018-08-24T10:58:06.446Z,2732
2018-08-24T10:58:26.764Z,2768
2018-08-24T10:58:46.997Z,2780
2018-08-24T10:59:07.276Z,2780
2018-08-24T10:59:28.707Z,2760
2018-08-24T10:59:48.945Z,2744
2018-08-24T11:00:09.189Z,2744
2018-08-24T11:00:31.124Z,2736
2018-08-24T11:00:51.400Z,2748
2018-08-24T11:01:11.704Z,2756
2018-08-24T11:01:31.958Z,2732
2018-08-24T11:01:52.260Z,2680
2018-08-24T11:02:12.790Z,2636
2018-08-24T11:02:32.980Z,2608
2018-08-24T11:02:53.185Z,2612
2018-08-24T11:03:14.089Z,2648
2018-08-24T11:03:34.323Z,2656
2018-08-24T11:03:54.537Z,2656
2018-08-24T11:04:14.760Z,2620
2018-08-24T11:04:34.923Z,2620
2018-08-24T11:04:55.144Z,2580
2018-08-24T11:05:15.467Z,2572
2018-08-24T11:05:35.823Z,2564
2018-08-24T11:05:56.053Z,2556
2018-08-24T11:06:16.253Z,2532
2018-08-24T11:06:37.493Z,2512
2018-08-24T11:06:58.301Z,2488
2018-08-24T11:07:18.849Z,2472
2018-08-24T11:07:39.162Z,2484
2018-08-24T11:08:19.038Z,2500
2018-08-24T11:08:39.276Z,2504
2018-08-24T11:08:59.573Z,2516
2018-08-24T11:09:19.818Z,2520
2018-08-24T11:09:40.022Z,2524
2018-08-24T11:10:01.403Z,2524
2018-08-24T11:10:21.558Z,2532
2018-08-24T11:10:42.671Z,2544
2018-08-24T11:11:02.843Z,2552
2018-08-24T11:11:23.071Z,2564
2018-08-24T11:11:43.295Z,2572
2018-08-24T11:12:03.534Z,2584
2018-08-24T11:12:23.766Z,2588
2018-08-24T11:12:44.860Z,2588
2018-08-24T11:13:05.571Z,2584
2018-08-24T11:13:25.954Z,2564
2018-08-24T11:13:46.474Z,2548
2018-08-24T11:14:06.898Z,2520
2018-08-24T11:14:27.589Z,2484
2018-08-24T11:14:47.968Z,2456
2018-08-24T11:15:08.235Z,2424
2018-08-24T11:15:28.512Z,2380
2018-08-24T11:15:48.797Z,2328
2018-08-24T11:16:09.794Z,2288
2018-08-24T11:16:30.687Z,2236
2018-08-24T11:16:50.924Z,2156
2018-08-24T11:17:11.409Z,2164
2018-08-24T11:17:31.717Z,2144
2018-08-24T11:17:52.002Z,2132
2018-08-24T11:18:12.468Z,2104
2018-08-24T11:18:32.647Z,2084
2018-08-24T11:18:52.937Z,2076
2018-08-24T11:19:14.236Z,2060
2018-08-24T11:19:34.609Z,2040
2018-08-24T11:19:56.443Z,2036
2018-08-24T11:20:16.858Z,2032
2018-08-24T11:20:37.260Z,2016
2018-08-24T11:20:57.570Z,2012
2018-08-24T11:21:18.929Z,2012
2018-08-24T11:21:39.108Z,2004
2018-08-24T11:21:59.376Z,1984
2018-08-24T11:22:20.107Z,1976
2018-08-24T11:22:40.406Z,1976
2018-08-24T11:23:00.882Z,1984
2018-08-24T11:23:21.088Z,2000
2018-08-24T11:23:41.376Z,2016
2018-08-24T11:24:01.605Z,2028
2018-08-24T11:24:21.853Z,2032
2018-08-24T11:24:42.067Z,2040
2018-08-24T11:25:02.313Z,2052
2018-08-24T11:25:22.617Z,2052